Time;durP1;ratioP1;P1;durP2;ratioP2;P2;SDS_P1;SDS_P2;PMS_P1;PMS_P2;Temp;Humidity;BMP_temperature;BMP_pressure;BME280_temperature;BME280_humidity;BME280_pressure;Samples;Min_cycle;Max_cycle;Signal;HPM_P1;HPM_P2
2022/05/20 00:09:54;;;;;;;8.98;6.68;;;;;;;17.70;100.00;100846.19;21152730;28;20484;-70
2022/05/20 00:19:56;;;;;;;12.15;7.18;;;;;;;17.60;100.00;100836.88;21153739;28;20092;-71
2022/05/20 00:29:58;;;;;;;13.88;7.80;;;;;;;17.55;100.00;100832.69;21152599;28;20055;-70
2022/05/20 00:39:59;;;;;;;12.35;7.05;;;;;;;17.73;100.00;100808.19;21150675;28;20077;-70
2022/05/20 00:50:06;;;;;;;15.48;7.18;;;;;;;17.72;100.00;100821.44;21151140;28;20412;-70
2022/05/20 01:00:12;;;;;;;13.65;7.35;;;;;;;17.69;100.00;100810.06;21150942;28;20054;-70
2022/05/20 01:10:15;;;;;;;12.48;7.38;;;;;;;17.55;100.00;100820.31;21150585;28;20051;-70
2022/05/20 01:20:21;;;;;;;13.20;6.97;;;;;;;17.34;100.00;100813.16;21150371;28;20483;-70
2022/05/20 01:30:26;;;;;;;10.63;7.30;;;;;;;17.24;100.00;100809.13;21148718;28;20096;-70
2022/05/20 01:40:47;;;;;;;14.20;8.03;;;;;;;17.22;100.00;100810.97;21149774;28;20089;-69
2022/05/20 01:50:54;;;;;;;13.38;7.95;;;;;;;17.26;100.00;100809.94;21152655;28;20309;-69
2022/05/20 02:01:00;;;;;;;13.93;8.63;;;;;;;17.28;100.00;100797.50;21163883;28;20088;-69
2022/05/20 02:11:13;;;;;;;12.25;7.93;;;;;;;17.26;100.00;100794.06;21164036;28;20100;-69
2022/05/20 02:21:19;;;;;;;12.20;7.80;;;;;;;17.25;100.00;100805.56;21163467;28;20077;-70
2022/05/20 02:31:28;;;;;;;12.82;8.90;;;;;;;17.26;100.00;100807.31;21160931;28;20043;-68
2022/05/20 02:41:30;;;;;;;12.93;9.55;;;;;;;17.30;100.00;100812.44;21161360;28;20055;-67
2022/05/20 02:51:32;;;;;;;16.90;10.00;;;;;;;17.16;100.00;100809.44;21160354;28;20636;-68
2022/05/20 03:11:54;;;;;;;15.45;11.57;;;;;;;17.25;100.00;100817.03;21158801;28;20109;-68
2022/05/20 03:22:03;;;;;;;16.48;10.93;;;;;;;17.37;100.00;100811.25;21158214;28;20051;-68
2022/05/20 03:32:05;;;;;;;20.83;11.57;;;;;;;17.49;100.00;100817.91;21157111;28;20052;-68
2022/05/20 03:42:06;;;;;;;19.20;11.98;;;;;;;17.47;100.00;100813.56;21156643;28;20377;-70
2022/05/20 03:52:09;;;;;;;18.08;11.77;;;;;;;17.51;100.00;100810.75;21155763;28;20108;-68
2022/05/20 04:02:12;;;;;;;21.05;12.25;;;;;;;17.58;100.00;100801.66;21154571;28;20562;-68
2022/05/20 04:12:31;;;;;;;18.10;11.80;;;;;;;17.72;100.00;100773.78;21131741;28;20108;-68
2022/05/20 04:22:35;;;;;;;16.05;10.63;;;;;;;17.54;100.00;100789.47;21069433;28;22088;-68
2022/05/20 04:32:37;;;;;;;;;;;;;;;17.55;100.00;100785.88;21077896;28;20416;-68
2022/05/20 04:52:58;;;;;;;16.15;11.18;;;;;;;17.69;100.00;100799.47;21066463;28;20448;-69
2022/05/20 05:03:00;;;;;;;14.88;10.43;;;;;;;17.76;100.00;100800.09;21066388;28;20044;-68
2022/05/20 05:13:02;;;;;;;17.65;11.38;;;;;;;17.75;100.00;100816.06;21067005;28;20043;-69
2022/05/20 05:23:03;;;;;;;17.42;12.90;;;;;;;18.01;100.00;100829.13;21067850;28;20055;-68
2022/05/20 05:33:05;;;;;;;21.23;13.20;;;;;;;18.17;100.00;100845.31;21082326;28;20401;-69
2022/05/20 05:43:07;;;;;;;20.65;16.25;;;;;;;18.29;100.00;100838.66;21083081;28;20048;-69
2022/05/20 05:53:14;;;;;;;21.48;15.70;;;;;;;18.57;100.00;100825.97;21082675;28;20086;-69
2022/05/20 06:03:16;;;;;;;22.35;16.92;;;;;;;18.91;100.00;100835.19;21080805;28;20043;-68
2022/05/20 06:13:23;;;;;;;24.25;14.65;;;;;;;18.88;100.00;100835.34;21080496;28;20101;-68
2022/05/20 06:23:25;;;;;;;17.85;13.10;;;;;;;19.11;100.00;100824.53;21079448;28;20043;-68
2022/05/20 06:33:27;;;;;;;20.52;12.88;;;;;;;19.33;100.00;100821.81;21077795;28;20051;-67
2022/05/20 06:43:28;;;;;;;18.70;11.25;;;;;;;19.51;100.00;100822.75;21078267;28;20044;-67
2022/05/20 06:53:30;;;;;;;18.75;13.80;;;;;;;19.89;100.00;100820.16;21135664;28;20054;-67
2022/05/20 07:03:32;;;;;;;17.90;12.48;;;;;;;20.15;100.00;100826.84;21154128;28;20410;-65
2022/05/20 07:13:34;;;;;;;20.70;11.82;;;;;;;20.47;100.00;100817.31;21119519;28;20047;-66
2022/05/20 07:23:35;;;;;;;14.73;11.15;;;;;;;20.58;100.00;100808.78;21127620;28;20055;-66
2022/05/20 07:33:37;;;;;;;13.45;8.82;;;;;;;20.85;100.00;100795.88;21118516;28;20047;-66
2022/05/20 07:43:39;;;;;;;12.63;7.95;;;;;;;21.39;100.00;100772.59;21148689;28;20088;-66
2022/05/20 07:53:54;;;;;;;17.40;11.10;;;;;;;21.43;100.00;100774.16;21148369;28;20077;-65
2022/05/20 08:14:20;;;;;;;;;;;;;;;22.51;100.00;100761.75;21139247;28;20043;-66
2022/05/20 08:24:22;;;;;;;13.95;10.02;;;;;;;22.86;99.29;100761.47;21145497;28;20438;-66
2022/05/20 08:34:23;;;;;;;16.17;11.18;;;;;;;23.02;98.27;100746.22;21144177;28;20097;-66
2022/05/20 08:44:24;;;;;;;14.80;8.32;;;;;;;23.58;95.95;100730.25;21142171;28;20055;-66
2022/05/20 08:54:26;;;;;;;12.57;7.72;;;;;;;24.13;92.36;100721.28;21143250;28;20112;-67
2022/05/20 09:04:27;;;;;;;9.95;6.25;;;;;;;24.62;86.73;100716.13;21142047;28;20048;-69
2022/05/20 09:24:49;;;;;;;8.00;5.40;;;;;;;26.05;72.87;100687.94;21142582;28;20047;-67
2022/05/20 09:35:17;;;;;;;9.73;5.30;;;;;;;26.29;69.54;100627.00;21141676;28;20473;-67
2022/05/20 09:45:21;;;;;;;9.40;4.75;;;;;;;26.50;57.68;100645.16;21141108;28;20077;-67
2022/05/20 09:55:44;;;;;;;11.80;4.43;;;;;;;27.47;51.45;100635.53;21141131;28;20058;-67
2022/05/20 10:05:59;;;;;;;8.63;4.57;;;;;;;27.97;47.52;100634.00;21140187;28;20126;-67
2022/05/20 10:16:10;;;;;;;11.00;3.90;;;;;;;28.47;45.53;100615.38;21143559;28;20051;-67
2022/05/20 10:26:29;;;;;;;11.25;4.70;;;;;;;28.94;44.71;100598.66;21136154;28;20048;-67
2022/05/20 10:36:53;;;;;;;12.23;5.00;;;;;;;28.68;46.21;100585.69;21066881;28;20109;-67
2022/05/20 10:59:10;;;;;;;8.80;4.25;;;;;;;29.44;41.89;100471.84;20908180;28;20197;-67
2022/05/20 11:09:48;;;;;;;9.55;4.22;;;;;;;29.96;40.36;100430.00;20861219;28;20052;-67
2022/05/20 11:20:15;;;;;;;10.10;4.85;;;;;;;30.25;46.19;100381.25;21065874;28;20121;-67
2022/05/20 11:30:31;;;;;;;9.98;4.55;;;;;;;30.23;43.23;100396.78;21062340;28;20048;-67
2022/05/20 11:40:54;;;;;;;11.00;4.57;;;;;;;30.15;41.00;100375.91;21064556;28;20048;-67
2022/05/20 11:51:21;;;;;;;13.30;3.80;;;;;;;30.33;38.95;100348.09;21063590;28;20342;-67
2022/05/20 12:01:24;;;;;;;11.27;3.42;;;;;;;30.25;37.39;100334.50;21062386;28;20093;-67
2022/05/20 12:11:28;;;;;;;6.97;3.15;;;;;;;30.59;35.09;100315.75;21074495;28;20484;-68
2022/05/20 12:31:58;;;;;;;11.57;3.45;;;;;;;30.63;35.86;100279.31;21144075;28;20611;-67
2022/05/20 12:42:01;;;;;;;8.63;3.83;;;;;;;30.87;36.10;100255.19;21143837;28;20121;-68
2022/05/20 12:52:34;;;;;;;9.15;3.70;;;;;;;30.83;34.70;100252.94;21143087;28;20070;-67
2022/05/20 13:02:43;;;;;;;9.27;3.17;;;;;;;30.78;34.40;100303.94;21142841;28;20419;-67
2022/05/20 13:12:49;;;;;;;11.60;3.15;;;;;;;29.51;36.59;100344.31;21082587;28;20078;-67
2022/05/20 13:22:51;;;;;;;10.73;3.83;;;;;;;29.93;36.26;100235.91;21140097;28;20101;-67
2022/05/20 13:33:01;;;;;;;10.87;3.67;;;;;;;30.78;35.35;100149.84;21141004;28;20050;-68
2022/05/20 13:43:03;;;;;;;5.93;3.10;;;;;;;30.59;35.86;100229.25;21140348;28;20423;-69
2022/05/20 13:53:05;;;;;;;13.82;4.22;;;;;;;29.92;37.14;100279.25;21155416;28;20047;-69
2022/05/20 14:03:33;;;;;;;9.80;3.55;;;;;;;29.08;40.31;100351.13;21155593;28;20105;-69
2022/05/20 14:13:38;;;;;;;9.63;3.15;;;;;;;26.69;59.38;100445.78;21154638;28;20052;-67
2022/05/20 14:23:50;;;;;;;12.60;4.32;;;;;;;23.94;90.28;100472.91;21153311;28;20454;-66
2022/05/20 14:33:59;;;;;;;8.32;3.90;;;;;;;24.41;89.32;100420.53;21152972;28;20052;-67
2022/05/20 14:44:06;;;;;;;8.70;4.15;;;;;;;25.32;83.47;100260.03;21150136;28;20476;-67
2022/05/20 14:54:14;;;;;;;9.93;4.18;;;;;;;25.44;85.04;100231.38;21151369;28;20043;-67
2022/05/20 15:04:16;;;;;;;13.07;4.15;;;;;;;25.93;84.28;100247.06;21148995;28;20101;-67
2022/05/20 15:14:18;;;;;;;11.27;4.35;;;;;;;25.86;80.99;100295.97;21141643;28;20407;-67
2022/05/20 15:24:26;;;;;;;13.82;4.03;;;;;;;25.41;86.68;100323.63;21148516;28;20555;-67
2022/05/20 15:44:52;;;;;;;13.85;5.32;;;;;;;24.91;91.14;100158.78;21147415;28;20248;-67
2022/05/20 15:55:00;;;;;;;10.73;3.90;;;;;;;25.54;81.09;100146.56;21145137;28;20047;-67
2022/05/20 16:05:20;;;;;;;11.55;4.72;;;;;;;26.20;80.43;100149.97;21141640;28;20040;-68
2022/05/20 16:15:22;;;;;;;8.18;4.50;;;;;;;26.09;77.99;100148.19;21143453;28;20142;-68
2022/05/20 16:25:27;;;;;;;12.68;4.68;;;;;;;26.53;73.87;100126.59;21133793;28;20047;-68
2022/05/20 16:35:28;;;;;;;11.30;4.25;;;;;;;26.68;69.32;100138.69;21134177;28;20420;-68
2022/05/20 16:45:33;;;;;;;7.10;3.95;;;;;;;26.21;71.94;100148.16;21106436;28;20048;-68
2022/05/20 16:55:38;;;;;;;7.95;3.63;;;;;;;26.30;69.12;100164.31;21051401;28;20078;-68
2022/05/20 17:05:41;;;;;;;11.65;3.63;;;;;;;25.90;68.26;100174.03;21049933;28;20043;-67
2022/05/20 17:15:43;;;;;;;9.87;4.17;;;;;;;25.79;82.15;100175.75;21117624;28;20048;-67
2022/05/20 17:25:45;;;;;;;9.13;4.40;;;;;;;26.02;80.51;100163.13;21146779;28;20544;-67
2022/05/20 17:35:47;;;;;;;12.52;3.75;;;;;;;26.02;77.56;100122.03;21150280;28;20697;-68
2022/05/20 17:45:48;;;;;;;7.13;4.00;;;;;;;25.83;75.40;100131.63;21096464;28;20118;-68
2022/05/20 17:55:50;;;;;;;8.85;4.47;;;;;;;25.31;73.98;100118.97;21085439;27;20040;-67
2022/05/20 18:05:51;;;;;;;9.45;4.18;;;;;;;24.82;76.89;100155.03;21097799;28;20051;-69
2022/05/20 18:15:53;;;;;;;11.32;4.50;;;;;;;24.14;84.48;100195.94;21084209;28;20094;-68
2022/05/20 18:25:58;;;;;;;10.30;5.13;;;;;;;23.78;86.89;100238.69;21112633;28;20047;-68
2022/05/20 18:46:20;;;;;;;13.32;6.00;;;;;;;21.30;100.00;100502.25;21079621;28;20040;-66
2022/05/20 18:56:21;;;;;;;21.92;6.57;;;;;;;20.13;100.00;100361.69;21067679;28;20535;-65
2022/05/20 19:06:24;;;;;;;16.55;6.25;;;;;;;19.88;100.00;100362.22;21065618;28;20135;-66
2022/05/20 19:16:30;;;;;;;19.98;7.05;;;;;;;19.94;100.00;100430.97;21114586;28;20043;-66
2022/05/20 19:26:32;;;;;;;13.55;5.90;;;;;;;20.09;100.00;100461.16;21150431;28;20134;-68
2022/05/20 19:36:33;;;;;;;14.98;7.18;;;;;;;20.29;100.00;100469.84;21147567;28;20044;-67
2022/05/20 19:46:35;;;;;;;15.75;7.03;;;;;;;20.34;100.00;100523.66;21146160;28;20067;-67
2022/05/20 19:56:37;;;;;;;13.98;6.28;;;;;;;20.25;100.00;100525.84;21146482;28;20043;-67
2022/05/20 20:06:44;;;;;;;14.52;6.50;;;;;;;20.35;100.00;100551.94;21144075;28;20565;-67
2022/05/20 20:16:47;;;;;;;15.25;7.20;;;;;;;20.31;100.00;100558.38;21144835;28;20051;-67
2022/05/20 20:26:51;;;;;;;14.00;6.72;;;;;;;20.10;100.00;100576.31;21143005;28;20050;-67
2022/05/20 20:36:53;;;;;;;14.23;7.35;;;;;;;20.04;100.00;100600.56;21139828;28;20128;-67
2022/05/20 20:46:54;;;;;;;14.65;6.70;;;;;;;19.97;100.00;100600.88;21143014;28;20050;-67
2022/05/20 20:56:57;;;;;;;13.45;6.32;;;;;;;19.89;100.00;100628.81;21142125;28;20047;-67
2022/05/20 21:06:58;;;;;;;12.88;5.40;;;;;;;19.61;100.00;100638.16;21140677;28;20069;-66
2022/05/20 21:16:59;;;;;;;9.07;4.70;;;;;;;19.59;100.00;100658.56;21133126;28;20539;-67
2022/05/20 21:27:01;;;;;;;8.55;4.28;;;;;;;19.51;100.00;100668.72;21141533;28;20069;-67
2022/05/20 21:37:03;;;;;;;8.25;4.15;;;;;;;19.42;100.00;100693.91;21140202;28;20043;-67
2022/05/20 21:47:04;;;;;;;7.85;4.13;;;;;;;19.35;100.00;100718.16;21139832;28;20043;-67
2022/05/20 21:57:08;;;;;;;7.75;4.28;;;;;;;19.34;100.00;100732.38;21140096;28;20493;-67
2022/05/20 22:17:32;;;;;;;9.50;4.10;;;;;;;19.04;100.00;100740.84;21077785;28;20055;-68
2022/05/20 22:27:34;;;;;;;9.57;4.90;;;;;;;18.61;100.00;100742.69;21077468;28;20110;-68
2022/05/20 22:37:37;;;;;;;8.77;4.18;;;;;;;18.39;100.00;100768.41;21076084;28;20067;-68
2022/05/20 22:47:38;;;;;;;10.98;5.25;;;;;;;18.24;100.00;100790.25;21075796;28;20496;-67
2022/05/20 22:57:41;;;;;;;11.32;5.20;;;;;;;17.95;100.00;100805.53;21073730;28;20044;-67
2022/05/20 23:07:43;;;;;;;5.20;3.30;;;;;;;17.82;100.00;100813.13;21073722;28;20408;-67
2022/05/20 23:17:45;;;;;;;9.80;3.80;;;;;;;17.59;100.00;100843.09;21072289;28;20574;-67
2022/05/20 23:27:46;;;;;;;6.25;3.97;;;;;;;17.53;100.00;100845.97;21073307;28;20052;-69
2022/05/20 23:37:48;;;;;;;6.93;3.00;;;;;;;17.28;100.00;100856.59;21071723;28;20113;-68
2022/05/20 23:47:49;;;;;;;5.35;2.50;;;;;;;16.95;100.00;100863.94;21070939;28;20052;-68
2022/05/20 23:57:50;;;;;;;4.13;2.63;;;;;;;16.59;100.00;100869.53;21070598;28;20044;-68
